Time;durP1;ratioP1;P1;durP2;ratioP2;P2;SDS_P1;SDS_P2;PMS_P1;PMS_P2;Temp;Humidity;BMP_temperature;BMP_pressure;BME280_temperature;BME280_humidity;BME280_pressure;Samples;Min_cycle;Max_cycle;Signal;HPM_P1;HPM_P2
2022/06/07 00:01:19;;;;;;;10.27;4.50;;;;;;;24.95;60.16;100712.34;2080549;28;20045;-71
2022/06/07 00:02:42;;;;;;;10.35;4.85;;;;;;;24.94;59.95;100707.91;2093388;28;20449;-71
2022/06/07 00:04:06;;;;;;;11.50;5.03;;;;;;;24.95;59.73;100706.94;2088328;28;20169;-71
2022/06/07 00:05:28;;;;;;;8.43;4.43;;;;;;;24.98;59.49;100705.00;2093405;28;20105;-71
2022/06/07 00:06:50;;;;;;;8.93;4.55;;;;;;;24.99;59.21;100679.75;2093965;28;20054;-71
2022/06/07 00:08:16;;;;;;;9.88;5.38;;;;;;;24.99;59.25;100689.66;2086529;28;20758;-72
2022/06/07 00:09:39;;;;;;;9.63;4.00;;;;;;;24.96;59.68;100673.56;2082641;28;20114;-72
2022/06/07 00:11:04;;;;;;;12.82;5.32;;;;;;;24.94;59.77;100670.09;2092183;28;20060;-71
2022/06/07 00:12:27;;;;;;;12.63;6.43;;;;;;;24.96;59.74;100660.06;2094990;28;20057;-72
2022/06/07 00:13:50;;;;;;;9.35;4.90;;;;;;;24.98;59.68;100672.56;2093680;28;20044;-71
2022/06/07 00:15:14;;;;;;;11.85;5.95;;;;;;;24.96;59.46;100668.19;2087936;28;20057;-72
2022/06/07 00:16:36;;;;;;;13.50;5.07;;;;;;;24.96;59.42;100652.84;2086232;28;20037;-71
2022/06/07 00:17:59;;;;;;;12.35;5.65;;;;;;;24.99;59.56;100652.72;2086331;28;20037;-72
2022/06/07 00:19:22;;;;;;;7.43;4.53;;;;;;;24.97;59.57;100657.31;2091770;28;20074;-72
2022/06/07 00:20:45;;;;;;;10.95;4.68;;;;;;;24.96;59.47;100652.84;2094108;28;20052;-71
2022/06/07 00:22:07;;;;;;;9.35;4.95;;;;;;;24.98;59.40;100644.69;2088866;28;20076;-72
2022/06/07 00:23:30;;;;;;;9.55;5.30;;;;;;;25.01;59.15;100641.81;2087047;28;20088;-72
2022/06/07 00:24:51;;;;;;;10.13;4.50;;;;;;;25.04;59.04;100633.59;2087303;28;20051;-72
2022/06/07 00:26:16;;;;;;;11.45;5.05;;;;;;;25.06;59.08;100642.50;2094096;28;20385;-72
2022/06/07 00:27:37;;;;;;;11.70;5.05;;;;;;;25.05;59.22;100637.16;2080794;28;20055;-72
2022/06/07 00:29:02;;;;;;;12.30;5.53;;;;;;;25.05;58.87;100635.34;2085141;28;20052;-72
2022/06/07 00:30:24;;;;;;;11.80;4.90;;;;;;;25.08;58.99;100631.59;2080519;28;20073;-72
2022/06/07 00:31:47;;;;;;;9.90;5.00;;;;;;;25.08;58.89;100634.31;2085034;28;20048;-72
2022/06/07 00:33:10;;;;;;;11.50;5.82;;;;;;;25.03;59.08;100634.53;2082605;28;20159;-72
2022/06/07 00:34:32;;;;;;;9.32;5.30;;;;;;;25.01;59.27;100631.00;2083604;28;20045;-71
2022/06/07 00:35:55;;;;;;;;;;;;;;;24.98;59.17;100625.78;2086703;28;20044;-72
2022/06/07 00:37:18;;;;;;;9.73;4.78;;;;;;;24.96;59.10;100631.25;2086434;28;19928;-72
2022/06/07 00:38:42;;;;;;;11.82;5.05;;;;;;;24.97;58.87;100621.31;2077792;28;20061;-72
2022/06/07 00:40:05;;;;;;;10.73;4.38;;;;;;;24.97;59.01;100621.31;2084131;28;20056;-72
2022/06/07 00:41:28;;;;;;;10.32;5.43;;;;;;;24.94;59.26;100613.38;2086312;28;20060;-71
2022/06/07 00:42:51;;;;;;;11.63;4.95;;;;;;;24.93;59.15;100604.38;2094366;28;20048;-72
2022/06/07 00:44:38;;;;;;;10.20;4.78;;;;;;;24.94;59.06;100602.56;2092455;28;20126;-72
2022/06/07 00:46:01;;;;;;;10.05;5.00;;;;;;;24.90;58.88;100601.81;2096946;28;20049;-71
2022/06/07 00:47:26;;;;;;;10.95;5.00;;;;;;;24.88;58.88;100598.25;2084907;28;20330;-72
2022/06/07 00:48:49;;;;;;;18.80;6.35;;;;;;;24.86;59.00;100591.19;2091503;28;20049;-71
2022/06/07 00:50:19;;;;;;;9.00;5.18;;;;;;;24.87;59.28;100592.94;2094822;28;20523;-72
2022/06/07 00:51:44;;;;;;;11.48;5.93;;;;;;;24.87;59.10;100580.31;2093073;28;20051;-71
2022/06/07 00:53:16;;;;;;;13.02;5.18;;;;;;;24.86;59.07;100577.69;2086175;28;20634;-71
2022/06/07 00:54:38;;;;;;;8.10;5.32;;;;;;;24.82;59.16;100581.47;2087362;28;20074;-72
2022/06/07 00:56:15;;;;;;;15.38;5.28;;;;;;;24.83;59.25;100569.72;2081086;28;20060;-72
2022/06/07 00:57:39;;;;;;;10.65;4.80;;;;;;;24.82;58.83;100573.34;2083633;28;20059;-72
2022/06/07 00:59:07;;;;;;;8.90;4.75;;;;;;;24.73;59.25;100550.38;2093881;28;20127;-72
2022/06/07 01:00:30;;;;;;;11.02;5.20;;;;;;;24.70;58.97;100552.31;2088244;28;20512;-71
2022/06/07 01:01:55;;;;;;;10.23;4.55;;;;;;;24.65;59.09;100551.66;2086191;28;20514;-71
2022/06/07 01:03:20;;;;;;;13.02;4.30;;;;;;;24.65;59.14;100555.25;2086175;28;20409;-72
2022/06/07 01:04:44;;;;;;;11.75;5.00;;;;;;;24.63;58.81;100547.22;2083710;28;20037;-71
2022/06/07 01:11:06;;;;;;;8.90;5.00;;;;;;;24.66;58.79;100558.81;2080241;28;20080;-72
2022/06/07 01:12:30;;;;;;;7.85;4.55;;;;;;;24.66;58.71;100548.91;2098982;28;20056;-71
2022/06/07 01:13:54;;;;;;;13.82;5.30;;;;;;;24.65;58.74;100551.66;2082796;28;20456;-72
2022/06/07 01:15:24;;;;;;;9.43;5.30;;;;;;;24.60;58.65;100560.88;2094235;28;20114;-71
2022/06/07 01:16:47;;;;;;;9.98;4.90;;;;;;;24.56;58.94;100561.94;2085825;28;20045;-72
2022/06/07 01:18:10;;;;;;;9.73;4.63;;;;;;;24.53;58.86;100554.00;2079761;28;20456;-72
2022/06/07 01:19:36;;;;;;;9.80;4.43;;;;;;;24.54;58.74;100558.44;2085126;28;20147;-73
2022/06/07 01:21:32;;;;;;;10.30;4.75;;;;;;;24.53;58.73;100562.09;2085475;28;20045;-72
2022/06/07 01:22:55;;;;;;;9.63;4.82;;;;;;;24.47;59.13;100558.78;2095367;28;20122;-73
2022/06/07 01:24:19;;;;;;;9.02;4.03;;;;;;;24.45;59.04;100566.94;2077791;28;20050;-72
2022/06/07 01:26:01;;;;;;;7.82;4.43;;;;;;;24.48;58.80;100572.19;2095340;28;20138;-71
2022/06/07 01:27:25;;;;;;;12.27;4.53;;;;;;;24.48;58.60;100574.88;2085870;28;20524;-72
2022/06/07 01:28:48;;;;;;;12.18;4.60;;;;;;;24.52;58.35;100564.84;2080654;28;20556;-73
2022/06/07 01:30:12;;;;;;;8.30;4.28;;;;;;;24.54;58.32;100569.25;2083506;28;20056;-72
2022/06/07 01:31:35;;;;;;;11.30;5.63;;;;;;;24.53;58.29;100556.69;2083068;28;20067;-72
2022/06/07 01:32:57;;;;;;;15.60;5.25;;;;;;;24.52;58.10;100562.16;2083215;28;20533;-71
2022/06/07 01:34:19;;;;;;;8.70;4.28;;;;;;;24.48;58.40;100566.78;2089887;28;20131;-71
2022/06/07 01:35:41;;;;;;;16.40;5.18;;;;;;;24.41;58.34;100565.34;2077320;28;20405;-73
2022/06/07 01:37:05;;;;;;;11.88;4.88;;;;;;;24.40;58.42;100562.69;2082719;28;20048;-72
2022/06/07 01:38:32;;;;;;;9.45;5.25;;;;;;;24.37;58.48;100555.59;2077651;28;20045;-72
2022/06/07 01:43:13;;;;;;;11.40;5.13;;;;;;;24.31;58.83;100555.00;2095647;28;20536;-72
2022/06/07 01:44:39;;;;;;;11.07;4.93;;;;;;;24.32;58.77;100564.84;2087569;28;20098;-72
2022/06/07 01:46:05;;;;;;;10.50;5.50;;;;;;;24.31;58.73;100550.47;2069824;28;20112;-72
2022/06/07 01:47:30;;;;;;;9.10;5.00;;;;;;;24.30;58.70;100553.25;2088415;28;20044;-72
2022/06/07 01:48:55;;;;;;;8.32;4.47;;;;;;;24.29;58.73;100557.75;2085048;28;20195;-72
2022/06/07 01:50:18;;;;;;;11.30;4.95;;;;;;;24.30;58.76;100559.50;2090657;28;20091;-72
2022/06/07 01:51:40;;;;;;;10.25;4.70;;;;;;;24.28;58.48;100561.44;2085690;28;20620;-72
2022/06/07 01:53:04;;;;;;;8.13;6.15;;;;;;;24.25;58.41;100558.84;2085479;28;20198;-72
2022/06/07 01:54:25;;;;;;;8.30;5.07;;;;;;;24.23;58.38;100574.22;2077490;28;20129;-73
2022/06/07 01:55:50;;;;;;;11.38;4.90;;;;;;;24.20;58.40;100574.38;2079731;28;20139;-72
2022/06/07 01:57:12;;;;;;;10.98;4.75;;;;;;;24.19;58.43;100578.00;2083257;28;20638;-72
2022/06/07 01:58:35;;;;;;;7.50;4.80;;;;;;;24.15;58.47;100577.25;2079205;28;20057;-72
2022/06/07 01:59:59;;;;;;;6.93;4.22;;;;;;;24.14;58.50;100570.09;2090388;28;20478;-71
2022/06/07 02:01:25;;;;;;;8.55;4.25;;;;;;;24.13;58.33;100571.03;2087244;28;20057;-71
2022/06/07 02:02:47;;;;;;;7.47;4.60;;;;;;;24.13;58.40;100560.25;2086957;28;20081;-72
2022/06/07 02:04:10;;;;;;;9.82;4.35;;;;;;;24.12;58.37;100563.00;2085352;28;20063;-72
2022/06/07 02:05:33;;;;;;;9.77;4.57;;;;;;;24.09;58.25;100555.06;2091325;28;20059;-72
2022/06/07 02:06:58;;;;;;;11.48;4.55;;;;;;;24.07;58.40;100568.59;2085897;28;20566;-72
2022/06/07 02:08:30;;;;;;;10.63;4.55;;;;;;;24.06;58.24;100563.25;2093238;28;20052;-72
2022/06/07 02:09:53;;;;;;;9.35;5.15;;;;;;;24.03;58.14;100561.56;2085474;28;20539;-73
2022/06/07 02:11:17;;;;;;;8.88;4.50;;;;;;;24.03;58.35;100556.16;2086531;28;20052;-72
2022/06/07 02:12:45;;;;;;;6.55;4.15;;;;;;;24.02;58.26;100564.34;2081862;28;20091;-71
2022/06/07 02:14:07;;;;;;;9.52;4.60;;;;;;;24.02;58.12;100558.94;2091157;28;20037;-72
2022/06/07 02:15:30;;;;;;;11.35;4.85;;;;;;;24.02;58.24;100548.16;2092959;28;20051;-71
2022/06/07 02:16:53;;;;;;;10.98;4.60;;;;;;;24.03;58.08;100552.59;2087862;28;20052;-72
2022/06/07 02:18:19;;;;;;;10.68;4.30;;;;;;;24.03;58.19;100541.81;2086196;28;20049;-72
2022/06/07 02:20:09;;;;;;;10.63;4.38;;;;;;;24.05;58.25;100542.63;2088076;28;20064;-71
2022/06/07 02:21:32;;;;;;;9.35;4.85;;;;;;;24.08;58.12;100529.00;2085489;28;20045;-71
2022/06/07 02:22:55;;;;;;;9.32;4.32;;;;;;;24.09;58.11;100523.53;2081758;28;20102;-72
2022/06/07 02:24:20;;;;;;;9.27;4.15;;;;;;;24.10;58.09;100527.09;2083022;28;20532;-71
2022/06/07 02:25:48;;;;;;;9.60;4.10;;;;;;;24.12;58.13;100530.63;2089570;28;20064;-72
2022/06/07 02:27:15;;;;;;;9.68;4.00;;;;;;;24.15;58.18;100534.06;2077965;28;20048;-72
2022/06/07 02:28:39;;;;;;;7.78;3.95;;;;;;;24.16;58.16;100535.81;2077640;28;20146;-72
2022/06/07 02:30:01;;;;;;;12.32;4.45;;;;;;;24.18;58.08;100541.13;2077149;28;20057;-71
2022/06/07 02:31:25;;;;;;;8.88;4.30;;;;;;;24.19;58.29;100541.13;2090989;28;20126;-71
2022/06/07 02:32:48;;;;;;;11.85;4.82;;;;;;;24.21;58.10;100549.16;2091363;28;20370;-71
2022/06/07 02:34:15;;;;;;;8.18;4.50;;;;;;;24.22;58.06;100545.47;2085488;28;20068;-71
2022/06/07 02:35:40;;;;;;;10.10;4.30;;;;;;;24.21;58.28;100555.44;2087802;28;20063;-71
2022/06/07 02:37:05;;;;;;;11.10;4.25;;;;;;;24.22;58.09;100549.06;2093859;28;20045;-71
2022/06/07 02:38:27;;;;;;;9.30;3.97;;;;;;;24.20;58.09;100537.47;2088254;28;20052;-72
2022/06/07 02:39:52;;;;;;;9.80;4.15;;;;;;;24.21;58.31;100549.16;2079454;28;20083;-72
2022/06/07 02:41:19;;;;;;;11.18;4.45;;;;;;;24.19;58.22;100541.13;2090632;28;20062;-72
2022/06/07 02:42:41;;;;;;;9.60;5.20;;;;;;;24.18;58.28;100547.41;2094372;28;20056;-71
2022/06/07 02:44:04;;;;;;;13.18;4.13;;;;;;;24.19;58.24;100548.34;2098409;28;20040;-72
2022/06/07 02:45:28;;;;;;;7.53;4.15;;;;;;;24.17;58.32;100542.09;2087287;28;20439;-71
2022/06/07 02:46:51;;;;;;;10.85;4.13;;;;;;;24.19;58.26;100545.63;2093947;28;20059;-72
2022/06/07 02:48:14;;;;;;;10.70;3.72;;;;;;;24.19;58.12;100545.63;2087634;28;20059;-71
2022/06/07 02:49:37;;;;;;;10.38;4.25;;;;;;;24.17;58.13;100542.97;2089665;28;20044;-72
2022/06/07 02:51:01;;;;;;;15.65;3.97;;;;;;;24.16;58.20;100534.94;2082673;28;20033;-72
2022/06/07 02:52:24;;;;;;;11.95;4.93;;;;;;;24.16;58.33;100543.03;2084254;28;20160;-71
2022/06/07 02:54:01;;;;;;;8.15;3.47;;;;;;;24.16;58.16;100545.72;2086475;28;20060;-72
2022/06/07 02:55:27;;;;;;;8.07;3.78;;;;;;;24.17;58.20;100545.66;2091696;28;20059;-72
2022/06/07 02:56:55;;;;;;;8.70;3.85;;;;;;;24.16;58.28;100545.72;2089694;28;20044;-71
2022/06/07 02:58:17;;;;;;;8.13;3.67;;;;;;;24.19;58.06;100553.72;2083944;28;20163;-72
2022/06/07 02:59:39;;;;;;;11.77;3.70;;;;;;;24.20;57.96;100553.66;2079123;28;20725;-71
2022/06/07 03:01:01;;;;;;;8.40;4.03;;;;;;;24.20;57.85;100553.66;2083135;28;20076;-72
2022/06/07 03:02:30;;;;;;;10.93;4.40;;;;;;;24.22;57.88;100553.56;2087898;28;20087;-72
2022/06/07 03:03:52;;;;;;;11.13;3.72;;;;;;;24.23;57.66;100558.03;2077309;28;20639;-72
2022/06/07 03:05:15;;;;;;;10.80;4.07;;;;;;;24.24;57.71;100554.41;2090660;28;20056;-71
2022/06/07 03:06:45;;;;;;;9.00;3.70;;;;;;;24.25;57.59;100558.84;2085265;28;20463;-71
2022/06/07 03:08:08;;;;;;;12.38;3.65;;;;;;;24.27;57.70;100558.78;2083098;28;20418;-72
2022/06/07 03:09:32;;;;;;;7.75;3.63;;;;;;;24.27;57.36;100565.06;2082932;28;20091;-72
2022/06/07 03:10:58;;;;;;;10.75;3.60;;;;;;;24.27;57.46;100556.97;2085902;28;20049;-72
2022/06/07 03:12:20;;;;;;;10.27;3.67;;;;;;;24.26;57.31;100557.03;2083258;28;20576;-71
2022/06/07 03:13:46;;;;;;;7.15;3.58;;;;;;;24.27;57.25;100565.06;2090227;28;20044;-72
2022/06/07 03:15:14;;;;;;;8.52;3.45;;;;;;;24.26;57.40;100554.34;2086402;28;20140;-71
2022/06/07 03:16:38;;;;;;;11.43;3.83;;;;;;;24.27;57.25;100551.56;2085278;28;20083;-72
2022/06/07 03:18:01;;;;;;;11.63;3.25;;;;;;;24.27;57.28;100551.56;2086930;28;20045;-71
2022/06/07 03:19:30;;;;;;;8.98;3.60;;;;;;;24.30;57.01;100554.13;2089087;28;20761;-71
2022/06/07 03:20:52;;;;;;;17.90;5.68;;;;;;;24.33;57.12;100553.13;2076012;28;20045;-72
2022/06/07 03:22:17;;;;;;;10.27;3.50;;;;;;;24.36;56.84;100559.25;2084757;28;20584;-71
2022/06/07 03:23:40;;;;;;;8.25;3.40;;;;;;;24.38;56.79;100551.97;2083179;28;20048;-72
2022/06/07 03:25:07;;;;;;;7.28;3.13;;;;;;;24.44;56.77;100559.78;2086214;28;20045;-71
2022/06/07 03:26:35;;;;;;;10.52;3.53;;;;;;;24.49;56.64;100552.34;2084290;28;20068;-72
2022/06/07 03:28:08;;;;;;;10.27;3.67;;;;;;;24.54;56.32;100555.75;2088174;28;20053;-71
2022/06/07 03:29:31;;;;;;;9.00;3.08;;;;;;;24.59;56.26;100558.22;2094133;28;20049;-71
2022/06/07 03:30:54;;;;;;;7.43;2.97;;;;;;;24.60;56.01;100552.75;2085142;28;20080;-71
2022/06/07 03:32:15;;;;;;;8.63;2.65;;;;;;;24.61;56.05;100559.88;2085879;28;20806;-71
2022/06/07 03:33:40;;;;;;;9.25;3.20;;;;;;;24.63;55.93;100562.53;2089083;28;20140;-72
2022/06/07 03:35:04;;;;;;;12.40;3.05;;;;;;;24.63;55.74;100559.81;2093968;28;20078;-72
2022/06/07 03:36:30;;;;;;;6.82;2.78;;;;;;;24.68;55.62;100567.75;2088621;28;20514;-71
2022/06/07 03:37:54;;;;;;;9.63;3.03;;;;;;;24.71;55.44;100570.28;2087600;28;20497;-71
2022/06/07 03:39:17;;;;;;;8.13;3.47;;;;;;;24.74;55.60;100564.75;2078811;28;20042;-71
2022/06/07 03:40:51;;;;;;;11.07;3.20;;;;;;;24.78;55.17;100567.22;2079307;28;20041;-71
2022/06/07 03:42:21;;;;;;;6.30;2.95;;;;;;;24.86;55.26;100565.06;2084857;28;20146;-72
2022/06/07 03:43:44;;;;;;;7.43;2.78;;;;;;;24.98;55.36;100575.31;2088554;28;20068;-72
2022/06/07 03:45:08;;;;;;;9.40;2.92;;;;;;;25.13;54.88;100562.94;2089948;28;20084;-72
2022/06/07 03:46:34;;;;;;;6.95;2.97;;;;;;;25.26;54.90;100574.03;2089242;28;20045;-72
2022/06/07 03:47:57;;;;;;;7.75;3.17;;;;;;;25.40;54.53;100569.69;2084344;28;20036;-72
2022/06/07 03:49:20;;;;;;;9.15;2.53;;;;;;;25.56;54.53;100574.34;2083125;28;20080;-71
2022/06/07 03:50:43;;;;;;;6.68;2.80;;;;;;;25.68;54.01;100582.75;2084874;28;20056;-72
2022/06/07 03:52:06;;;;;;;13.48;3.55;;;;;;;25.81;54.02;100569.50;2088064;28;20048;-72
2022/06/07 03:53:34;;;;;;;10.30;2.85;;;;;;;25.92;53.49;100580.66;2084623;28;20043;-72
2022/06/07 03:54:56;;;;;;;10.05;3.40;;;;;;;26.03;53.42;100572.88;2094735;28;20041;-72
2022/06/07 03:56:23;;;;;;;7.13;2.63;;;;;;;26.16;53.26;100581.22;2086179;28;20049;-71
2022/06/07 03:57:48;;;;;;;7.50;3.25;;;;;;;26.29;53.27;100584.22;2098457;28;20093;-72
2022/06/07 03:59:11;;;;;;;12.45;2.83;;;;;;;26.40;52.76;100573.69;2091415;28;20108;-72
2022/06/07 04:00:34;;;;;;;8.75;2.90;;;;;;;26.52;52.85;100575.72;2091942;28;20117;-71
2022/06/07 04:01:59;;;;;;;5.60;2.85;;;;;;;26.63;52.63;100589.59;2080016;28;20098;-71
2022/06/07 04:03:23;;;;;;;8.93;3.25;;;;;;;26.75;52.38;100594.34;2094447;28;20045;-72
2022/06/07 04:04:44;;;;;;;8.93;2.80;;;;;;;26.84;52.22;100593.00;2089146;28;20049;-71
2022/06/07 04:06:07;;;;;;;13.10;2.85;;;;;;;26.94;52.08;100587.00;2094557;28;20056;-72
2022/06/07 04:09:10;;;;;;;9.32;2.90;;;;;;;27.15;51.51;100597.63;2082421;28;20050;-71
2022/06/07 04:10:36;;;;;;;9.82;4.07;;;;;;;27.23;50.96;100596.25;2084784;28;20052;-71
2022/06/07 04:11:59;;;;;;;9.13;2.65;;;;;;;27.24;50.80;100595.25;2080766;28;20088;-71
2022/06/07 04:13:27;;;;;;;14.77;3.53;;;;;;;27.21;50.63;100594.56;2089580;28;20097;-72
2022/06/07 04:14:53;;;;;;;8.07;3.10;;;;;;;27.22;50.92;100594.50;2087515;28;20041;-71
2022/06/07 04:16:18;;;;;;;7.53;2.95;;;;;;;27.35;50.87;100597.38;2078233;28;20056;-71
2022/06/07 04:17:48;;;;;;;8.15;3.05;;;;;;;27.50;50.44;100593.81;2086756;28;20053;-72
2022/06/07 04:19:27;;;;;;;8.05;3.20;;;;;;;27.59;50.17;100597.84;2080510;28;20494;-71
2022/06/07 04:20:50;;;;;;;9.70;3.60;;;;;;;27.72;49.90;100594.34;2078828;28;20045;-72
2022/06/07 04:22:13;;;;;;;8.90;3.83;;;;;;;27.91;49.66;100594.13;2084974;28;20144;-71
2022/06/07 04:23:41;;;;;;;9.98;3.13;;;;;;;28.11;49.16;100587.53;2094593;28;20049;-72
2022/06/07 04:25:03;;;;;;;9.25;2.97;;;;;;;28.27;49.01;100591.13;2086606;28;20489;-71
2022/06/07 04:26:29;;;;;;;11.40;3.33;;;;;;;28.48;48.63;100589.81;2083263;28;20053;-71
2022/06/07 04:27:54;;;;;;;8.38;3.50;;;;;;;28.67;48.24;100586.84;2084836;28;20073;-72
2022/06/07 04:29:20;;;;;;;8.93;3.13;;;;;;;28.85;47.61;100590.25;2084645;28;20603;-71
2022/06/07 04:30:45;;;;;;;9.85;2.90;;;;;;;28.98;47.41;100593.09;2084048;28;20067;-72
2022/06/07 04:32:12;;;;;;;8.15;3.40;;;;;;;29.13;47.02;100582.13;2089585;28;20124;-72
2022/06/07 04:33:37;;;;;;;12.00;4.28;;;;;;;29.28;46.67;100589.25;2084172;28;20054;-72
2022/06/07 04:35:00;;;;;;;9.13;2.80;;;;;;;29.37;46.47;100579.69;2082951;28;20057;-72
2022/06/07 04:36:26;;;;;;;10.25;3.00;;;;;;;29.51;46.08;100584.22;2077698;28;20394;-71
2022/06/07 04:37:51;;;;;;;6.07;2.75;;;;;;;29.61;45.90;100586.22;2085232;28;20068;-71
2022/06/07 04:39:15;;;;;;;9.60;3.70;;;;;;;29.74;45.81;100586.25;2085408;28;20425;-72
2022/06/07 04:40:52;;;;;;;13.82;3.47;;;;;;;29.84;45.98;100591.97;2086975;28;20045;-72
2022/06/07 04:42:13;;;;;;;12.73;4.13;;;;;;;29.94;46.06;100582.25;2082673;28;20062;-72
2022/06/07 04:43:57;;;;;;;8.80;3.33;;;;;;;30.14;45.82;100595.38;2087427;28;20052;-72
2022/06/07 04:45:23;;;;;;;9.93;3.45;;;;;;;30.23;45.59;100593.88;2075104;28;20053;-72
2022/06/07 04:46:56;;;;;;;12.07;3.72;;;;;;;30.30;45.78;100593.34;2082032;28;20048;-71
2022/06/07 04:48:17;;;;;;;8.15;3.33;;;;;;;30.40;45.72;100599.03;2075515;28;20053;-71
2022/06/07 04:49:49;;;;;;;9.82;3.28;;;;;;;30.55;45.43;100603.44;2087666;28;20067;-72
2022/06/07 04:51:14;;;;;;;9.90;3.08;;;;;;;30.74;45.28;100595.72;2081891;28;20094;-72
2022/06/07 04:52:41;;;;;;;11.20;3.60;;;;;;;30.90;44.65;100590.06;2085208;28;20626;-72
2022/06/07 04:54:05;;;;;;;11.32;3.58;;;;;;;31.03;44.38;100588.19;2071826;28;20049;-72
2022/06/07 04:55:33;;;;;;;7.03;3.25;;;;;;;31.16;44.00;100590.94;2090201;28;20079;-71
2022/06/07 04:56:55;;;;;;;8.88;3.03;;;;;;;31.19;43.80;100593.44;2080442;28;20045;-72
2022/06/07 04:58:19;;;;;;;12.38;2.97;;;;;;;31.33;43.01;100585.09;2083347;28;20120;-72
2022/06/07 04:59:45;;;;;;;12.52;3.45;;;;;;;31.46;42.99;100594.13;2084928;28;20159;-71
2022/06/07 05:01:15;;;;;;;11.48;3.55;;;;;;;31.56;42.40;100603.41;2090953;28;20445;-73
2022/06/07 05:02:37;;;;;;;11.07;3.50;;;;;;;31.77;42.20;100603.66;2086686;28;20125;-72
2022/06/07 05:04:00;;;;;;;8.90;2.70;;;;;;;31.92;41.72;100597.06;2091216;28;20048;-72
2022/06/07 05:05:23;;;;;;;6.43;2.60;;;;;;;32.00;41.44;100607.41;2084837;28;20041;-72
2022/06/07 05:06:46;;;;;;;6.70;2.67;;;;;;;32.08;41.27;100599.50;2091748;28;20081;-73
2022/06/07 05:08:18;;;;;;;11.13;3.17;;;;;;;32.16;41.00;100608.03;2079995;28;20172;-72
2022/06/07 05:09:42;;;;;;;10.88;3.15;;;;;;;32.18;40.21;100602.41;2082525;28;20055;-72
2022/06/07 05:11:10;;;;;;;8.90;2.80;;;;;;;32.14;40.29;100603.66;2086609;28;20112;-72
2022/06/07 05:12:33;;;;;;;12.55;3.25;;;;;;;32.25;40.25;100614.63;2083881;28;20140;-72
2022/06/07 05:13:57;;;;;;;9.48;2.63;;;;;;;32.33;39.95;100603.97;2085866;28;20553;-72
2022/06/07 05:15:20;;;;;;;8.63;2.85;;;;;;;32.48;39.70;100607.38;2081264;28;20068;-71
2022/06/07 05:16:49;;;;;;;10.00;2.78;;;;;;;32.67;39.45;100614.03;2082856;28;20481;-72
2022/06/07 05:18:16;;;;;;;7.22;3.05;;;;;;;32.84;39.30;100620.91;2076863;28;20049;-72
2022/06/07 05:19:42;;;;;;;9.35;3.10;;;;;;;32.91;39.14;100627.63;2084913;28;20478;-72
2022/06/07 05:21:13;;;;;;;10.55;4.18;;;;;;;33.07;38.96;100624.53;2078333;28;20045;-73
2022/06/07 05:22:36;;;;;;;6.05;2.30;;;;;;;33.25;38.72;100619.47;2085313;28;20548;-72
2022/06/07 05:23:59;;;;;;;14.25;3.28;;;;;;;33.36;38.70;100622.19;2083467;28;20045;-73
2022/06/07 05:25:22;;;;;;;9.48;2.72;;;;;;;33.44;38.37;100626.06;2079974;28;20045;-73
2022/06/07 05:26:52;;;;;;;7.07;2.40;;;;;;;33.42;38.10;100629.91;2083720;28;20143;-73
2022/06/07 05:28:20;;;;;;;8.13;2.67;;;;;;;33.53;37.81;100639.00;2087509;28;20045;-72
2022/06/07 05:29:48;;;;;;;13.75;2.80;;;;;;;33.55;37.83;100641.59;2081157;28;20144;-73
2022/06/07 05:31:21;;;;;;;8.55;2.65;;;;;;;33.67;37.73;100631.53;2083231;28;20060;-72
2022/06/07 05:32:45;;;;;;;10.13;2.50;;;;;;;33.74;37.63;100635.53;2081496;28;20056;-72
2022/06/07 05:34:13;;;;;;;13.13;2.65;;;;;;;33.87;37.45;100636.25;2082102;28;20087;-74
2022/06/07 05:35:37;;;;;;;8.63;2.58;;;;;;;33.90;37.20;100650.53;2075392;28;20057;-73
2022/06/07 05:37:04;;;;;;;6.00;2.35;;;;;;;33.99;36.98;100649.78;2084471;28;20567;-73
2022/06/07 05:38:27;;;;;;;6.07;2.22;;;;;;;33.97;36.94;100646.28;2085828;28;20049;-73
2022/06/07 05:40:13;;;;;;;10.38;3.75;;;;;;;34.12;37.04;100644.13;2087377;28;20107;-73
2022/06/07 05:41:37;;;;;;;7.93;2.30;;;;;;;34.31;36.59;100648.97;2083687;28;20084;-73
2022/06/07 05:43:07;;;;;;;11.23;2.47;;;;;;;34.55;36.26;100646.84;2085420;28;20084;-75
2022/06/07 05:44:36;;;;;;;10.45;2.22;;;;;;;34.60;36.01;100651.91;2082181;28;20045;-73
2022/06/07 05:46:00;;;;;;;7.47;2.47;;;;;;;34.79;35.74;100647.47;2082827;28;20064;-72
2022/06/07 05:47:43;;;;;;;5.28;2.67;;;;;;;34.87;35.57;100649.53;2096539;28;20523;-74
2022/06/07 05:49:08;;;;;;;8.30;2.38;;;;;;;34.83;35.47;100660.94;2085874;28;20095;-73
2022/06/07 05:50:48;;;;;;;8.70;2.85;;;;;;;34.93;35.54;100646.25;2086694;28;20048;-73
2022/06/07 05:52:11;;;;;;;5.68;2.30;;;;;;;34.92;35.65;100651.91;2082376;28;20056;-72
2022/06/07 05:53:36;;;;;;;8.50;2.38;;;;;;;35.01;35.74;100651.94;2083479;28;20110;-74
2022/06/07 05:55:00;;;;;;;9.75;2.80;;;;;;;34.98;36.15;100654.97;2082652;28;20053;-73
2022/06/07 05:56:25;;;;;;;9.00;3.47;;;;;;;34.93;36.39;100657.25;2087047;28;20449;-73
2022/06/07 05:57:54;;;;;;;8.50;2.67;;;;;;;34.98;36.42;100648.63;2083623;28;20037;-73
2022/06/07 05:59:18;;;;;;;10.90;2.67;;;;;;;34.96;36.63;100658.84;2089256;28;20155;-73
2022/06/07 06:00:41;;;;;;;5.75;2.47;;;;;;;34.90;36.79;100646.53;2093257;28;20124;-72
2022/06/07 06:02:05;;;;;;;9.90;3.13;;;;;;;34.78;37.06;100656.72;2080047;28;20127;-74
2022/06/07 06:03:35;;;;;;;7.25;2.40;;;;;;;34.76;37.25;100656.00;2083218;28;20036;-74
2022/06/07 06:05:00;;;;;;;9.05;2.70;;;;;;;34.69;37.46;100664.84;2079284;28;20360;-73
2022/06/07 06:06:24;;;;;;;8.15;2.83;;;;;;;34.63;37.45;100663.50;2090113;28;20036;-73
2022/06/07 06:11:12;;;;;;;6.85;2.53;;;;;;;34.85;37.37;100672.66;2100977;28;20083;-73
2022/06/07 06:12:39;;;;;;;9.20;3.47;;;;;;;34.67;37.40;100670.47;2088085;28;20441;-73
2022/06/07 06:14:07;;;;;;;11.82;2.67;;;;;;;34.54;37.55;100668.91;2094046;28;20071;-73
2022/06/07 06:15:31;;;;;;;7.97;2.42;;;;;;;34.42;37.72;100668.09;2079316;28;20564;-73
2022/06/07 06:16:55;;;;;;;6.60;2.58;;;;;;;34.37;37.61;100662.13;2083888;28;20037;-73
2022/06/07 06:18:37;;;;;;;5.80;2.58;;;;;;;33.98;38.36;100675.44;2088253;28;20045;-73
2022/06/07 06:20:01;;;;;;;7.18;2.45;;;;;;;33.95;38.57;100672.94;2084173;28;20155;-73
2022/06/07 06:21:25;;;;;;;6.32;2.55;;;;;;;34.06;38.68;100669.31;2085193;28;20453;-74
2022/06/07 06:22:47;;;;;;;7.60;2.63;;;;;;;34.00;38.71;100683.53;2087259;28;20059;-73
2022/06/07 06:24:12;;;;;;;9.43;2.70;;;;;;;34.06;38.94;100673.94;2078119;28;20106;-73
2022/06/07 06:25:35;;;;;;;7.97;2.58;;;;;;;33.98;38.67;100675.44;2083439;28;20049;-73
2022/06/07 06:26:58;;;;;;;9.95;2.70;;;;;;;34.03;39.00;100676.91;2077181;28;20099;-74
2022/06/07 06:28:26;;;;;;;7.72;2.53;;;;;;;34.16;38.80;100678.50;2094410;28;20489;-74
2022/06/07 06:29:49;;;;;;;6.60;2.50;;;;;;;34.16;38.75;100677.63;2087989;28;20068;-73
2022/06/07 06:31:13;;;;;;;5.95;2.65;;;;;;;34.23;38.71;100677.03;2085519;28;20076;-73
2022/06/07 06:32:39;;;;;;;9.65;3.30;;;;;;;34.26;38.83;100665.81;2086861;28;20048;-73
2022/06/07 06:34:02;;;;;;;8.63;2.60;;;;;;;34.41;38.58;100671.84;2077160;28;20650;-72
2022/06/07 06:35:27;;;;;;;6.32;2.55;;;;;;;34.52;38.29;100666.31;2085338;28;20610;-73
2022/06/07 06:36:50;;;;;;;6.63;2.88;;;;;;;34.54;38.29;100672.53;2084312;28;20076;-73
2022/06/07 06:38:15;;;;;;;8.95;3.30;;;;;;;34.74;38.15;100674.44;2083269;28;20135;-74
2022/06/07 06:39:38;;;;;;;7.38;2.90;;;;;;;35.00;37.70;100665.81;2091383;28;20075;-74
2022/06/07 06:40:59;;;;;;;6.05;2.72;;;;;;;35.14;37.32;100654.47;2082624;28;20052;-74
2022/06/07 06:42:22;;;;;;;9.23;2.70;;;;;;;35.29;37.05;100666.88;2079737;28;20245;-74
2022/06/07 06:44:05;;;;;;;5.35;2.42;;;;;;;35.19;36.65;100657.69;2088129;28;20486;-74
2022/06/07 06:45:34;;;;;;;6.53;3.05;;;;;;;35.00;36.93;100669.41;2078014;28;20156;-73
2022/06/07 06:47:02;;;;;;;8.25;2.78;;;;;;;34.90;37.08;100657.53;2088565;28;20047;-73
2022/06/07 06:48:24;;;;;;;12.90;3.95;;;;;;;34.88;37.04;100655.91;2085785;28;20066;-73
2022/06/07 06:49:48;;;;;;;8.80;2.60;;;;;;;34.82;36.98;100670.16;2091182;28;20135;-74